createdAt,value
2023-01-19T00:01:56.898Z,99113.53
2023-01-19T00:04:27.508Z,99105.16
2023-01-19T00:06:58.025Z,99110.78
2023-01-19T00:09:25.479Z,99112.41
2023-01-19T00:11:59.667Z,99107.59
2023-01-19T00:14:29.879Z,99106.38
2023-01-19T00:17:01.953Z,99104.03
2023-01-19T00:19:32.439Z,99102.88
2023-01-19T00:22:02.432Z,99108.50
2023-01-19T00:24:36.448Z,99116.50
2023-01-19T00:27:04.493Z,99111.34
2023-01-19T00:29:37.380Z,99110.13
2023-01-19T00:32:07.233Z,99102.16
2023-01-19T00:34:42.610Z,99098.88
2023-01-19T00:37:10.488Z,99098.03
2023-01-19T00:39:38.521Z,99088.81
2023-01-19T00:42:30.543Z,99092.06
2023-01-19T00:44:58.393Z,99086.00
2023-01-19T00:47:28.720Z,99081.25
2023-01-19T00:49:56.295Z,99086.03
2023-01-19T00:52:27.289Z,99088.50
2023-01-19T00:54:57.021Z,99088.56
2023-01-19T00:57:27.648Z,99087.22
2023-01-19T00:59:58.002Z,99087.66
2023-01-19T01:02:28.267Z,99089.28
2023-01-19T01:04:56.787Z,99096.50
2023-01-19T01:07:27.147Z,99099.72
2023-01-19T01:09:57.445Z,99112.56
2023-01-19T01:12:31.619Z,99102.94
2023-01-19T01:14:59.584Z,99102.69
2023-01-19T01:17:30.075Z,99097.78
2023-01-19T01:20:00.146Z,99102.59
2023-01-19T01:22:28.216Z,99101.81
2023-01-19T01:25:01.682Z,99100.59
2023-01-19T01:27:29.088Z,99104.97
2023-01-19T01:30:03.270Z,99106.94
2023-01-19T01:32:35.996Z,99099.75
2023-01-19T01:35:06.933Z,99097.44
2023-01-19T01:37:36.991Z,99100.66
2023-01-19T01:40:08.925Z,99103.81
2023-01-19T01:42:36.315Z,99103.03
2023-01-19T01:45:38.405Z,99098.59
2023-01-19T01:48:27.076Z,99083.22
2023-01-19T01:51:19.005Z,99090.53
2023-01-19T01:53:56.156Z,99094.50
2023-01-19T01:56:34.164Z,99103.38
2023-01-19T01:59:07.892Z,99096.06
2023-01-19T02:01:55.830Z,99107.31
2023-01-19T02:04:24.113Z,99100.50
2023-01-19T02:07:12.668Z,99095.22
2023-01-19T02:09:58.690Z,99087.84
2023-01-19T02:12:47.992Z,99084.50
2023-01-19T02:15:20.361Z,99094.81
2023-01-19T02:17:48.177Z,99090.22
2023-01-19T02:20:16.633Z,99086.25
2023-01-19T02:22:52.045Z,99091.44
2023-01-19T02:25:21.293Z,99093.56
2023-01-19T02:27:53.578Z,99085.09
2023-01-19T02:30:24.175Z,99084.56
2023-01-19T02:32:54.660Z,99083.59
2023-01-19T02:35:23.210Z,99080.22
2023-01-19T02:37:55.365Z,99072.50
2023-01-19T02:40:30.097Z,99076.03
2023-01-19T02:43:02.262Z,99065.56
2023-01-19T02:45:33.556Z,99071.38
2023-01-19T02:48:05.964Z,99077.44
2023-01-19T02:50:50.613Z,99089.97
2023-01-19T02:53:37.983Z,99093.44
2023-01-19T02:56:41.423Z,99089.03
2023-01-19T02:59:20.065Z,99102.84
2023-01-19T03:02:05.827Z,99107.34
2023-01-19T03:04:41.899Z,99104.81
2023-01-19T03:07:16.801Z,99111.53
2023-01-19T03:10:11.844Z,99112.13
2023-01-19T03:12:53.619Z,99114.59
2023-01-19T03:15:30.837Z,99116.38
2023-01-19T03:18:05.019Z,99116.19
2023-01-19T03:20:35.335Z,99108.59
2023-01-19T03:23:08.288Z,99112.50
2023-01-19T03:25:45.677Z,99114.97
2023-01-19T03:28:16.207Z,99123.78
2023-01-19T03:30:47.831Z,99124.72
2023-01-19T03:33:42.909Z,99127.00
2023-01-19T03:36:20.059Z,99129.03
2023-01-19T03:38:50.132Z,99138.81
2023-01-19T03:41:23.452Z,99124.00
2023-01-19T03:43:53.546Z,99117.97
2023-01-19T03:46:25.368Z,99130.13
2023-01-19T03:48:53.429Z,99124.13
2023-01-19T03:51:23.270Z,99118.19
2023-01-19T03:53:53.123Z,99117.00
2023-01-19T03:56:27.447Z,99116.00
2023-01-19T03:58:58.815Z,99114.78
2023-01-19T04:01:27.792Z,99116.91
2023-01-19T04:03:55.603Z,99129.66
2023-01-19T04:06:24.065Z,99128.44
2023-01-19T04:08:57.479Z,99128.53
2023-01-19T04:11:28.509Z,99124.16
2023-01-19T04:13:55.847Z,99111.31
2023-01-19T04:16:26.615Z,99110.13
2023-01-19T04:18:55.875Z,99102.03
2023-01-19T04:21:25.913Z,99112.09
2023-01-19T04:23:56.513Z,99109.00
2023-01-19T04:26:29.765Z,99114.25
2023-01-19T04:28:58.182Z,99118.38
2023-01-19T04:31:28.683Z,99121.06
2023-01-19T04:33:58.531Z,99118.69
2023-01-19T04:36:26.671Z,99119.94
2023-01-19T04:38:54.641Z,99130.34
2023-01-19T04:41:24.409Z,99127.97
2023-01-19T04:43:51.971Z,99130.03
2023-01-19T04:46:19.907Z,99123.19
2023-01-19T04:48:50.064Z,99123.22
2023-01-19T04:51:19.924Z,99126.00
2023-01-19T04:53:50.463Z,99133.94
2023-01-19T04:56:20.680Z,99129.59
2023-01-19T04:58:51.179Z,99127.97
2023-01-19T05:01:22.043Z,99133.53
2023-01-19T05:03:52.287Z,99136.78
2023-01-19T05:06:22.031Z,99142.84
2023-01-19T05:09:00.132Z,99146.84
2023-01-19T05:11:33.005Z,99145.66
2023-01-19T05:14:00.677Z,99154.97
2023-01-19T05:16:34.703Z,99153.41
2023-01-19T05:19:02.247Z,99156.56
2023-01-19T05:21:30.962Z,99148.88
2023-01-19T05:24:01.690Z,99152.47
2023-01-19T05:26:34.172Z,99144.47
2023-01-19T05:29:03.980Z,99154.19
2023-01-19T05:31:34.609Z,99154.59
2023-01-19T05:34:05.019Z,99167.03
2023-01-19T05:36:35.520Z,99164.16
2023-01-19T05:39:06.538Z,99169.81
2023-01-19T05:41:35.571Z,99165.41
2023-01-19T05:44:08.561Z,99169.00
2023-01-19T05:46:37.240Z,99177.78
2023-01-19T05:49:10.876Z,99179.09
2023-01-19T05:51:45.448Z,99173.84
2023-01-19T05:54:18.871Z,99178.25
2023-01-19T05:56:48.631Z,99182.25
2023-01-19T05:59:23.875Z,99177.03
2023-01-19T06:01:53.157Z,99181.91
2023-01-19T06:04:21.274Z,99172.66
2023-01-19T06:06:49.613Z,99183.44
2023-01-19T06:09:17.637Z,99194.31
2023-01-19T06:11:46.261Z,99193.94
2023-01-19T06:14:16.830Z,99206.78
2023-01-19T06:16:44.388Z,99206.78
2023-01-19T06:19:15.037Z,99213.31
2023-01-19T06:21:43.338Z,99213.31
2023-01-19T06:24:13.763Z,99214.88
2023-01-19T06:26:45.333Z,99222.19
2023-01-19T06:29:13.833Z,99219.38
2023-01-19T06:31:44.646Z,99223.72
2023-01-19T06:34:15.214Z,99230.63
2023-01-19T06:36:45.227Z,99242.69
2023-01-19T06:39:16.373Z,99241.09
2023-01-19T06:41:49.001Z,99232.25
2023-01-19T06:44:26.058Z,99245.88
2023-01-19T06:47:15.967Z,99241.75
2023-01-19T06:49:47.446Z,99249.81
2023-01-19T06:52:18.502Z,99249.41
2023-01-19T06:54:49.917Z,99250.66
2023-01-19T06:57:20.566Z,99247.75
2023-01-19T06:59:58.650Z,99248.19
2023-01-19T07:02:30.907Z,99255.13
2023-01-19T07:05:06.049Z,99270.34
2023-01-19T07:07:47.720Z,99280.34
2023-01-19T07:10:26.085Z,99283.94
2023-01-19T07:13:21.869Z,99293.59
2023-01-19T07:15:55.781Z,99283.94
2023-01-19T07:18:39.975Z,99299.19
2023-01-19T07:21:10.268Z,99300.75
2023-01-19T07:23:41.023Z,99306.34
2023-01-19T07:26:15.364Z,99310.41
2023-01-19T07:28:43.982Z,99306.75
2023-01-19T07:31:15.780Z,99313.63
2023-01-19T07:33:55.093Z,99320.84
2023-01-19T07:36:28.787Z,99331.28
2023-01-19T07:38:59.012Z,99340.88
2023-01-19T07:41:26.781Z,99344.91
2023-01-19T07:43:58.114Z,99341.75
2023-01-19T07:46:32.968Z,99341.69
2023-01-19T07:49:04.377Z,99351.78
2023-01-19T07:51:39.430Z,99361.84
2023-01-19T07:54:09.524Z,99370.66
2023-01-19T07:56:40.799Z,99383.53
2023-01-19T07:59:17.207Z,99385.91
2023-01-19T08:01:45.331Z,99401.19
2023-01-19T08:04:19.149Z,99396.00
2023-01-19T08:06:48.065Z,99411.25
2023-01-19T08:09:21.836Z,99413.25
2023-01-19T08:11:49.664Z,99418.91
2023-01-19T08:14:23.145Z,99426.16
2023-01-19T08:17:01.982Z,99430.06
2023-01-19T08:19:40.052Z,99440.13
2023-01-19T08:22:19.066Z,99436.22
2023-01-19T08:24:55.263Z,99447.63
2023-01-19T08:27:31.614Z,99456.06
2023-01-19T08:30:06.477Z,99455.69
2023-01-19T08:32:38.212Z,99469.75
2023-01-19T08:35:08.801Z,99479.44
2023-01-19T08:37:37.214Z,99481.91
2023-01-19T08:40:06.903Z,99484.41
2023-01-19T08:42:37.392Z,99501.38
2023-01-19T08:45:22.735Z,99497.75
2023-01-19T08:47:58.006Z,99507.84
2023-01-19T08:50:33.472Z,99520.72
2023-01-19T08:53:09.522Z,99534.03
2023-01-19T08:55:43.184Z,99527.56
2023-01-19T08:58:13.908Z,99534.91
2023-01-19T09:00:48.080Z,99529.66
2023-01-19T09:03:22.930Z,99535.34
2023-01-19T09:05:51.000Z,99532.94
2023-01-19T09:08:27.156Z,99533.75
2023-01-19T09:11:00.322Z,99538.97
2023-01-19T09:13:31.104Z,99528.94
2023-01-19T09:16:10.768Z,99535.69
2023-01-19T09:18:48.767Z,99535.59
2023-01-19T09:21:29.881Z,99543.66
2023-01-19T09:24:05.732Z,99554.53
2023-01-19T09:26:43.890Z,99557.84
2023-01-19T09:29:20.037Z,99562.69
2023-01-19T09:31:51.813Z,99565.09
2023-01-19T09:34:31.664Z,99565.91
2023-01-19T09:37:10.652Z,99574.78
2023-01-19T09:39:44.187Z,99578.00
2023-01-19T09:42:18.620Z,99577.19
2023-01-19T09:44:58.423Z,99582.00
2023-01-19T09:47:42.642Z,99588.03
2023-01-19T09:50:27.262Z,99592.06
2023-01-19T09:53:23.472Z,99600.09
2023-01-19T09:55:59.841Z,99596.09
2023-01-19T09:58:34.911Z,99600.94
2023-01-19T10:01:35.493Z,99609.84
2023-01-19T10:04:31.375Z,99605.38
2023-01-19T10:07:19.825Z,99609.41
2023-01-19T10:10:06.116Z,99609.00
2023-01-19T10:12:36.748Z,99612.63
2023-01-19T10:15:33.107Z,99611.47
2023-01-19T10:18:15.280Z,99617.50
2023-01-19T10:20:54.125Z,99619.50
2023-01-19T10:23:43.291Z,99618.31
2023-01-19T10:26:23.410Z,99621.13
2023-01-19T10:29:16.134Z,99620.72
2023-01-19T10:32:07.029Z,99625.94
2023-01-19T10:34:44.589Z,99627.97
2023-01-19T10:37:18.075Z,99625.53
2023-01-19T10:39:50.509Z,99625.94
2023-01-19T10:42:18.342Z,99618.66
2023-01-19T10:44:50.331Z,99622.31
2023-01-19T10:47:31.097Z,99629.97
2023-01-19T10:54:16.030Z,99608.59
2023-01-19T10:57:03.876Z,99602.56
2023-01-19T10:59:51.362Z,99597.34
2023-01-19T11:02:57.087Z,99596.91
2023-01-19T11:05:34.694Z,99610.22
2023-01-19T11:08:32.857Z,99588.13
2023-01-19T11:11:18.502Z,99585.31
2023-01-19T11:14:20.818Z,99591.31
2023-01-19T11:17:08.837Z,99590.88
2023-01-19T11:19:43.363Z,99587.63
2023-01-19T11:22:26.532Z,99574.66
2023-01-19T11:29:19.058Z,99575.09
2023-01-19T11:32:00.930Z,99569.84
2023-01-19T11:34:41.799Z,99565.84
2023-01-19T11:37:19.021Z,99566.66
2023-01-19T11:39:50.604Z,99566.66
2023-01-19T11:42:22.541Z,99559.44
2023-01-19T11:45:20.007Z,99561.47
2023-01-19T11:47:54.441Z,99559.44
2023-01-19T11:50:33.515Z,99557.84
2023-01-19T11:53:34.044Z,99549.84
2023-01-19T11:56:06.949Z,99547.44
2023-01-19T11:58:41.198Z,99559.09
2023-01-19T12:01:22.312Z,99552.28
2023-01-19T12:04:05.403Z,99555.09
2023-01-19T12:06:44.917Z,99554.25
2023-01-19T12:09:24.441Z,99546.19
2023-01-19T12:12:04.034Z,99546.19
2023-01-19T12:15:13.480Z,99548.22
2023-01-19T12:17:48.682Z,99549.00
2023-01-19T12:20:26.225Z,99555.88
2023-01-19T12:23:25.436Z,99545.81
2023-01-19T12:26:27.747Z,99543.81
2023-01-19T12:29:26.641Z,99544.94
2023-01-19T12:32:19.228Z,99552.94
2023-01-19T12:34:49.371Z,99550.81
2023-01-19T12:37:32.127Z,99550.78
2023-01-19T12:40:27.783Z,99557.28
2023-01-19T12:43:02.192Z,99540.44
2023-01-19T12:45:39.822Z,99548.09
2023-01-19T12:48:27.636Z,99539.28
2023-01-19T12:50:55.344Z,99542.50
2023-01-19T12:53:27.941Z,99545.75
2023-01-19T12:56:08.768Z,99537.28
2023-01-19T12:58:47.187Z,99546.94
2023-01-19T13:01:20.042Z,99547.81
2023-01-19T13:04:10.521Z,99549.00
2023-01-19T13:06:49.951Z,99556.63
2023-01-19T13:09:37.048Z,99564.31
2023-01-19T13:12:15.952Z,99565.50
2023-01-19T13:14:50.021Z,99567.13
2023-01-19T13:17:33.913Z,99561.88
2023-01-19T13:20:18.493Z,99572.69
2023-01-19T13:22:55.589Z,99571.94
2023-01-19T13:25:35.836Z,99570.75
2023-01-19T13:28:12.873Z,99572.69
2023-01-19T13:30:58.125Z,99587.25
2023-01-19T13:33:48.333Z,99586.47
2023-01-19T13:36:32.955Z,99583.22
2023-01-19T13:39:16.581Z,99591.63
2023-01-19T13:41:52.794Z,99582.41
2023-01-19T13:44:31.234Z,99584.81
2023-01-19T13:47:00.272Z,99589.28
2023-01-19T13:49:38.463Z,99581.63
2023-01-19T13:52:14.841Z,99588.03
2023-01-19T13:54:57.924Z,99594.88
2023-01-19T13:57:46.502Z,99591.25
2023-01-19T14:00:46.003Z,99598.06
2023-01-19T14:03:21.535Z,99596.88
2023-01-19T14:05:58.363Z,99602.94
2023-01-19T14:08:29.240Z,99602.91
2023-01-19T14:11:04.649Z,99611.00
2023-01-19T14:13:40.346Z,99600.50
2023-01-19T14:16:19.365Z,99616.59
2023-01-19T14:19:02.179Z,99612.56
2023-01-19T14:21:44.589Z,99618.13
2023-01-19T14:24:21.022Z,99625.81
2023-01-19T14:26:54.915Z,99618.97
2023-01-19T14:29:25.537Z,99618.59
2023-01-19T14:32:15.141Z,99625.84
2023-01-19T14:35:05.109Z,99630.31
2023-01-19T14:37:55.153Z,99623.03
2023-01-19T14:40:24.686Z,99626.63
2023-01-19T14:43:03.217Z,99621.31
2023-01-19T14:45:39.390Z,99631.38
2023-01-19T14:48:29.459Z,99633.38
2023-01-19T14:51:05.411Z,99643.06
2023-01-19T14:53:37.786Z,99629.84
2023-01-19T14:56:11.282Z,99631.44
2023-01-19T14:58:42.293Z,99640.66
2023-01-19T15:01:10.035Z,99641.50
2023-01-19T15:03:45.713Z,99639.94
2023-01-19T15:06:20.188Z,99646.81
2023-01-19T15:08:53.679Z,99653.19
2023-01-19T15:11:35.201Z,99656.41
2023-01-19T15:14:11.433Z,99658.00
2023-01-19T15:16:45.073Z,99661.66
2023-01-19T15:19:21.978Z,99657.59
2023-01-19T15:21:53.540Z,99663.22
2023-01-19T15:24:29.231Z,99666.09
2023-01-19T15:27:03.167Z,99668.06
2023-01-19T15:29:36.407Z,99667.63
2023-01-19T15:32:04.490Z,99666.03
2023-01-19T15:34:35.482Z,99668.06
2023-01-19T15:37:08.419Z,99669.72
2023-01-19T15:39:37.456Z,99676.94
2023-01-19T15:42:13.070Z,99677.78
2023-01-19T15:44:45.078Z,99676.53
2023-01-19T15:47:15.366Z,99673.69
2023-01-19T15:49:51.008Z,99671.69
2023-01-19T15:52:32.614Z,99675.72
2023-01-19T15:55:11.142Z,99674.16
2023-01-19T15:57:42.005Z,99681.78
2023-01-19T16:00:13.653Z,99674.56
2023-01-19T16:02:44.260Z,99678.56
2023-01-19T16:05:18.523Z,99682.97
2023-01-19T16:07:52.126Z,99678.97
2023-01-19T16:10:28.515Z,99674.56
2023-01-19T16:13:07.449Z,99683.88
2023-01-19T16:15:43.580Z,99683.47
2023-01-19T16:18:22.924Z,99696.31
2023-01-19T16:20:56.500Z,99696.31
2023-01-19T16:23:36.837Z,99697.91
2023-01-19T16:26:28.307Z,99699.09
2023-01-19T16:29:08.978Z,99697.91
2023-01-19T16:31:43.300Z,99697.53
2023-01-19T16:34:17.608Z,99703.97
2023-01-19T16:36:54.051Z,99705.16
2023-01-19T16:39:24.094Z,99704.75
2023-01-19T16:41:56.947Z,99712.03
2023-01-19T16:44:35.070Z,99720.91
2023-01-19T16:47:06.051Z,99726.13
2023-01-19T16:49:39.546Z,99730.56
2023-01-19T16:52:10.188Z,99739.81
2023-01-19T16:54:41.378Z,99742.25
2023-01-19T16:57:13.613Z,99754.72
2023-01-19T16:59:41.976Z,99757.56
2023-01-19T17:02:11.128Z,99756.75
2023-01-19T17:04:41.838Z,99760.38
2023-01-19T17:07:15.925Z,99774.03
2023-01-19T17:10:02.906Z,99775.25
2023-01-19T17:12:32.404Z,99781.72
2023-01-19T17:15:02.337Z,99782.50
2023-01-19T17:17:32.316Z,99776.06
2023-01-19T17:20:08.385Z,99778.47
2023-01-19T17:22:41.662Z,99795.38
2023-01-19T17:25:11.426Z,99792.19
2023-01-19T17:27:41.383Z,99791.00
2023-01-19T17:30:14.888Z,99789.34
2023-01-19T17:32:42.682Z,99781.69
2023-01-19T17:35:10.520Z,99794.19
2023-01-19T17:37:50.699Z,99794.22
2023-01-19T17:40:20.646Z,99785.00
2023-01-19T17:42:48.162Z,99782.59
2023-01-19T17:45:15.683Z,99791.47
2023-01-19T17:47:47.745Z,99786.66
2023-01-19T17:50:18.308Z,99783.38
2023-01-19T17:52:45.963Z,99788.22
2023-01-19T17:55:15.704Z,99782.97
2023-01-19T17:57:43.297Z,99788.19
2023-01-19T18:00:14.884Z,99791.03
2023-01-19T18:02:42.540Z,99793.06
2023-01-19T18:05:12.706Z,99796.31
2023-01-19T18:07:42.817Z,99796.31
2023-01-19T18:10:11.976Z,99799.53
2023-01-19T18:12:42.880Z,99795.50
2023-01-19T18:15:18.035Z,99796.28
2023-01-19T18:17:45.761Z,99795.53
2023-01-19T18:20:16.178Z,99792.31
2023-01-19T18:22:43.776Z,99796.34
2023-01-19T18:25:20.556Z,99791.53
2023-01-19T18:27:59.913Z,99791.91
2023-01-19T18:30:31.174Z,99786.69
2023-01-19T18:32:58.703Z,99786.31
2023-01-19T18:35:26.609Z,99790.72
2023-01-19T18:37:59.339Z,99789.06
2023-01-19T18:40:29.247Z,99785.50
2023-01-19T18:42:59.775Z,99780.25
2023-01-19T18:45:33.072Z,99785.47
2023-01-19T18:48:04.906Z,99779.41
2023-01-19T18:50:32.711Z,99783.44
2023-01-19T18:53:00.176Z,99787.53
2023-01-19T18:55:33.277Z,99781.06
2023-01-19T18:58:01.468Z,99787.88
2023-01-19T19:00:31.574Z,99779.81
2023-01-19T19:03:02.666Z,99784.66
2023-01-19T19:05:33.098Z,99790.66
2023-01-19T19:08:03.666Z,99785.84
2023-01-19T19:10:33.435Z,99784.66
2023-01-19T19:13:04.063Z,99784.69
2023-01-19T19:15:33.162Z,99789.50
2023-01-19T19:18:01.725Z,99793.94
2023-01-19T19:20:29.460Z,99784.25
2023-01-19T19:22:57.806Z,99792.72
2023-01-19T19:25:28.387Z,99795.16
2023-01-19T19:27:55.918Z,99793.16
2023-01-19T19:30:27.283Z,99793.94
2023-01-19T19:32:56.516Z,99776.63
2023-01-19T19:35:24.135Z,99786.69
2023-01-19T19:37:57.680Z,99777.84
2023-01-19T19:40:29.265Z,99776.25
2023-01-19T19:42:58.887Z,99780.25
2023-01-19T19:45:26.939Z,99781.03
2023-01-19T19:47:59.641Z,99783.84
2023-01-19T19:50:27.022Z,99781.88
2023-01-19T19:52:54.500Z,99790.69
2023-01-19T19:55:24.563Z,99790.31
2023-01-19T19:57:52.740Z,99785.09
2023-01-19T20:00:22.970Z,99780.66
2023-01-19T20:02:52.935Z,99786.28
2023-01-19T20:05:23.152Z,99776.25
2023-01-19T20:07:55.176Z,99782.25
2023-01-19T20:10:22.988Z,99787.53
2023-01-19T20:12:51.469Z,99785.88
2023-01-19T20:15:21.913Z,99791.94
2023-01-19T20:17:56.580Z,99794.34
2023-01-19T20:20:24.646Z,99797.16
2023-01-19T20:22:52.947Z,99801.19
2023-01-19T20:25:22.719Z,99798.78
2023-01-19T20:27:53.896Z,99796.34
2023-01-19T20:30:27.154Z,99802.81
2023-01-19T20:32:54.664Z,99797.16
2023-01-19T20:35:22.197Z,99799.59
2023-01-19T20:37:49.751Z,99794.75
2023-01-19T20:40:20.427Z,99797.56
2023-01-19T20:42:55.329Z,99804.84
2023-01-19T20:45:22.756Z,99800.78
2023-01-19T20:47:56.967Z,99804.41
2023-01-19T20:50:28.103Z,99798.38
2023-01-19T20:52:57.996Z,99808.03
2023-01-19T20:55:27.714Z,99811.66
2023-01-19T20:57:57.711Z,99817.66
2023-01-19T21:00:29.996Z,99814.03
2023-01-19T21:03:00.031Z,99823.72
2023-01-19T21:05:29.791Z,99832.56
2023-01-19T21:07:59.440Z,99839.41
2023-01-19T21:10:32.116Z,99835.00
2023-01-19T21:13:02.040Z,99839.00
2023-01-19T21:15:31.598Z,99846.25
2023-01-19T21:18:01.777Z,99843.81
2023-01-19T21:20:33.316Z,99847.88
2023-01-19T21:23:02.909Z,99845.47
2023-01-19T21:25:33.679Z,99841.44
2023-01-19T21:28:03.843Z,99832.19
2023-01-19T21:30:33.709Z,99834.59
2023-01-19T21:33:03.177Z,99834.19
2023-01-19T21:35:36.491Z,99832.59
2023-01-19T21:38:04.500Z,99842.25
2023-01-19T21:40:35.106Z,99848.28
2023-01-19T21:43:05.321Z,99845.47
2023-01-19T21:45:32.699Z,99847.88
2023-01-19T21:48:00.087Z,99849.47
2023-01-19T21:50:27.626Z,99856.31
2023-01-19T21:53:03.654Z,99853.91
2023-01-19T21:55:37.010Z,99864.78
2023-01-19T21:58:05.175Z,99862.75
2023-01-19T22:00:34.988Z,99868.78
2023-01-19T22:03:04.591Z,99863.16
2023-01-19T22:05:36.917Z,99871.22
2023-01-19T22:08:08.366Z,99879.25
2023-01-19T22:10:37.614Z,99874.41
2023-01-19T22:13:06.783Z,99876.84
2023-01-19T22:15:36.737Z,99874.44
2023-01-19T22:18:07.489Z,99877.25
2023-01-19T22:20:34.838Z,99887.69
2023-01-19T22:23:04.575Z,99889.72
2023-01-19T22:25:33.117Z,99894.53
2023-01-19T22:28:03.293Z,99904.59
2023-01-19T22:30:31.154Z,99891.72
2023-01-19T22:33:03.876Z,99887.28
2023-01-19T22:35:37.044Z,99885.28
2023-01-19T22:38:11.715Z,99884.09
2023-01-19T22:40:41.481Z,99881.25
2023-01-19T22:43:11.601Z,99883.28
2023-01-19T22:45:43.086Z,99886.50
2023-01-19T22:48:14.074Z,99887.69
2023-01-19T22:50:43.835Z,99886.50
2023-01-19T22:53:15.903Z,99887.72
2023-01-19T22:55:45.592Z,99888.09
2023-01-19T22:58:13.341Z,99886.06
2023-01-19T23:00:40.946Z,99890.53
2023-01-19T23:03:12.183Z,99883.25
2023-01-19T23:05:44.031Z,99884.09
2023-01-19T23:08:11.523Z,99884.06
2023-01-19T23:10:44.249Z,99886.09
2023-01-19T23:13:11.807Z,99888.94
2023-01-19T23:15:41.725Z,99896.50
2023-01-19T23:18:11.526Z,99891.22
2023-01-19T23:20:38.972Z,99900.03
2023-01-19T23:23:08.620Z,99902.47
2023-01-19T23:25:39.353Z,99903.66
2023-01-19T23:28:11.437Z,99911.75
2023-01-19T23:30:44.316Z,99908.16
2023-01-19T23:33:20.091Z,99917.34
2023-01-19T23:35:47.782Z,99904.41
2023-01-19T23:38:17.847Z,99902.41
2023-01-19T23:40:47.817Z,99912.75
2023-01-19T23:43:18.169Z,99907.56
2023-01-19T23:45:51.056Z,99913.53
2023-01-19T23:48:26.035Z,99917.91
2023-01-19T23:50:56.511Z,99922.81
2023-01-19T23:53:30.666Z,99922.31
2023-01-19T23:55:58.070Z,99924.84
2023-01-19T23:58:33.252Z,99919.13
